createdAt,value
2022-11-22T00:00:43.249Z,3.80
2022-11-22T00:03:10.083Z,3.80
2022-11-22T00:05:37.441Z,3.80
2022-11-22T00:08:04.856Z,3.80
2022-11-22T00:10:32.081Z,3.80
2022-11-22T00:12:59.543Z,3.80
2022-11-22T00:15:26.520Z,3.90
2022-11-22T00:17:53.316Z,3.90
2022-11-22T00:20:20.059Z,3.90
2022-11-22T00:22:46.955Z,3.90
2022-11-22T00:25:15.067Z,3.90
2022-11-22T00:27:41.923Z,3.90
2022-11-22T00:30:09.804Z,3.90
2022-11-22T00:32:36.793Z,4.00
2022-11-22T00:35:04.525Z,4.00
2022-11-22T00:37:31.309Z,4.00
2022-11-22T00:39:58.114Z,4.10
2022-11-22T00:42:24.914Z,4.10
2022-11-22T00:44:51.714Z,4.10
2022-11-22T00:47:18.425Z,4.10
2022-11-22T00:49:45.182Z,4.10
2022-11-22T00:52:11.975Z,4.10
2022-11-22T00:54:38.791Z,4.10
2022-11-22T00:57:05.700Z,4.10
2022-11-22T00:59:32.610Z,4.20
2022-11-22T01:01:59.431Z,4.20
2022-11-22T01:04:26.238Z,4.20
2022-11-22T01:06:52.964Z,4.20
2022-11-22T01:09:23.454Z,4.30
2022-11-22T01:11:51.093Z,4.30
2022-11-22T01:14:18.934Z,4.30
2022-11-22T01:16:46.209Z,4.30
2022-11-22T01:19:13.467Z,4.30
2022-11-22T01:21:40.694Z,4.30
2022-11-22T01:24:07.838Z,4.30
2022-11-22T01:26:35.453Z,4.40
2022-11-22T01:29:02.510Z,4.40
2022-11-22T01:31:30.020Z,4.40
2022-11-22T01:33:58.763Z,4.40
2022-11-22T01:36:27.295Z,4.40
2022-11-22T01:38:54.049Z,4.50
2022-11-22T01:41:20.917Z,4.50
2022-11-22T01:43:47.750Z,4.50
2022-11-22T01:46:49.251Z,4.50
2022-11-22T01:49:42.545Z,4.50
2022-11-22T01:52:18.244Z,4.50
2022-11-22T01:54:52.049Z,4.50
2022-11-22T01:57:26.121Z,4.60
2022-11-22T02:00:01.159Z,4.60
2022-11-22T02:02:28.565Z,4.70
2022-11-22T02:04:58.423Z,4.70
2022-11-22T02:07:41.337Z,4.90
2022-11-22T02:10:09.705Z,4.80
2022-11-22T02:12:36.945Z,4.80
2022-11-22T02:15:04.464Z,4.80
2022-11-22T02:17:31.277Z,4.80
2022-11-22T02:19:58.066Z,4.80
2022-11-22T02:22:55.542Z,4.80
2022-11-22T02:25:36.673Z,4.80
2022-11-22T02:28:07.427Z,4.80
2022-11-22T02:30:35.542Z,4.90
2022-11-22T02:33:02.493Z,4.90
2022-11-22T02:35:30.588Z,4.90
2022-11-22T02:38:05.996Z,4.90
2022-11-22T02:41:11.603Z,4.90
2022-11-22T02:43:44.306Z,5.00
2022-11-22T02:46:16.667Z,5.00
2022-11-22T02:48:44.697Z,5.00
2022-11-22T02:51:16.736Z,5.00
2022-11-22T02:53:44.481Z,5.00
2022-11-22T02:56:11.223Z,5.10
2022-11-22T02:58:38.066Z,5.10
2022-11-22T03:01:05.147Z,5.10
2022-11-22T03:03:33.315Z,5.10
2022-11-22T03:06:00.536Z,5.10
2022-11-22T03:08:27.248Z,5.10
2022-11-22T03:10:53.988Z,5.10
2022-11-22T03:13:20.727Z,5.10
2022-11-22T03:15:47.822Z,5.10
2022-11-22T03:18:14.650Z,5.10
2022-11-22T03:20:41.400Z,5.10
2022-11-22T03:23:08.110Z,5.10
2022-11-22T03:25:38.629Z,5.10
2022-11-22T03:28:05.502Z,5.10
2022-11-22T03:30:32.529Z,5.00
2022-11-22T03:32:59.367Z,5.00
2022-11-22T03:35:26.156Z,5.00
2022-11-22T03:37:52.881Z,5.00
2022-11-22T03:40:21.053Z,4.90
2022-11-22T03:42:48.035Z,5.00
2022-11-22T03:45:14.942Z,5.00
2022-11-22T03:47:41.721Z,5.00
2022-11-22T03:50:09.112Z,5.00
2022-11-22T03:52:36.361Z,5.10
2022-11-22T03:55:03.231Z,5.10
2022-11-22T03:57:29.919Z,5.10
2022-11-22T03:59:56.709Z,5.10
2022-11-22T04:02:23.461Z,5.10
2022-11-22T04:04:50.130Z,5.20
2022-11-22T04:07:16.961Z,5.20
2022-11-22T04:09:43.704Z,5.20
2022-11-22T04:12:10.435Z,5.10
2022-11-22T04:14:55.668Z,5.10
2022-11-22T04:17:40.755Z,5.00
2022-11-22T04:20:48.669Z,5.10
2022-11-22T04:23:21.781Z,5.10
2022-11-22T04:25:51.661Z,5.10
2022-11-22T04:28:35.219Z,5.10
2022-11-22T04:31:38.974Z,5.10
2022-11-22T04:34:05.679Z,5.10
2022-11-22T04:36:32.407Z,5.10
2022-11-22T04:38:59.180Z,5.10
2022-11-22T04:41:26.026Z,5.00
2022-11-22T04:44:11.489Z,5.00
2022-11-22T04:46:38.263Z,4.90
2022-11-22T04:49:05.089Z,4.80
2022-11-22T04:51:50.468Z,4.70
2022-11-22T04:54:17.197Z,4.60
2022-11-22T04:56:43.922Z,4.50
2022-11-22T04:59:10.698Z,4.40
2022-11-22T05:01:37.564Z,4.30
2022-11-22T05:04:04.464Z,4.20
2022-11-22T05:06:31.237Z,4.10
2022-11-22T05:08:57.968Z,4.00
2022-11-22T05:11:24.789Z,3.90
2022-11-22T05:13:51.562Z,3.80
2022-11-22T05:16:18.319Z,3.70
2022-11-22T05:18:58.939Z,3.80
2022-11-22T05:21:28.445Z,3.70
2022-11-22T05:23:55.933Z,3.70
2022-11-22T05:26:30.071Z,3.60
2022-11-22T05:28:58.327Z,3.60
2022-11-22T05:31:27.382Z,3.50
2022-11-22T05:33:57.146Z,3.50
2022-11-22T05:36:25.304Z,3.40
2022-11-22T05:38:52.759Z,3.40
2022-11-22T05:41:19.967Z,3.30
2022-11-22T05:43:46.799Z,3.30
2022-11-22T05:46:22.549Z,3.30
2022-11-22T05:48:51.120Z,3.30
2022-11-22T05:51:21.692Z,3.20
2022-11-22T05:53:48.651Z,3.20
2022-11-22T05:56:21.718Z,3.10
2022-11-22T05:58:48.923Z,3.10
2022-11-22T06:01:20.166Z,3.10
2022-11-22T06:03:48.336Z,3.00
2022-11-22T06:06:15.979Z,3.10
2022-11-22T06:08:46.770Z,3.10
2022-11-22T06:11:18.288Z,3.20
2022-11-22T06:13:48.640Z,3.20
2022-11-22T06:16:16.287Z,3.30
2022-11-22T06:18:43.560Z,3.30
2022-11-22T06:21:20.332Z,3.40
2022-11-22T06:23:47.174Z,3.40
2022-11-22T06:26:17.822Z,3.50
2022-11-22T06:28:46.940Z,3.40
2022-11-22T06:31:20.615Z,3.30
2022-11-22T06:33:47.711Z,3.20
2022-11-22T06:36:18.982Z,3.20
2022-11-22T06:38:46.749Z,3.20
2022-11-22T06:41:17.415Z,3.20
2022-11-22T06:43:49.113Z,3.20
2022-11-22T06:46:21.770Z,3.10
2022-11-22T06:48:49.379Z,3.10
2022-11-22T06:51:28.717Z,3.10
2022-11-22T06:53:57.657Z,3.20
2022-11-22T06:56:36.509Z,3.30
2022-11-22T06:59:05.570Z,3.40
2022-11-22T07:01:34.613Z,3.60
2022-11-22T07:04:02.603Z,3.60
2022-11-22T07:06:38.765Z,3.80
2022-11-22T07:09:09.510Z,3.80
2022-11-22T07:11:36.542Z,3.90
2022-11-22T07:14:08.693Z,3.90
2022-11-22T07:16:37.997Z,4.00
2022-11-22T07:19:05.665Z,4.00
2022-11-22T07:21:32.682Z,4.10
2022-11-22T07:23:59.619Z,4.00
2022-11-22T07:26:27.237Z,3.90
2022-11-22T07:28:54.060Z,3.90
2022-11-22T07:31:21.212Z,3.90
2022-11-22T07:33:48.457Z,3.90
2022-11-22T07:36:22.182Z,3.90
2022-11-22T07:38:50.334Z,3.90
2022-11-22T07:41:18.904Z,4.10
2022-11-22T07:43:47.009Z,3.90
2022-11-22T07:46:31.463Z,3.90
2022-11-22T07:49:00.114Z,3.90
2022-11-22T07:51:27.640Z,3.90
2022-11-22T07:53:55.878Z,4.00
2022-11-22T07:56:23.085Z,4.00
2022-11-22T07:58:50.093Z,4.10
2022-11-22T08:01:19.163Z,4.00
2022-11-22T08:03:47.101Z,4.00
2022-11-22T08:06:15.003Z,3.90
2022-11-22T08:08:45.045Z,3.90
2022-11-22T08:11:13.165Z,3.90
2022-11-22T08:13:40.886Z,4.00
2022-11-22T08:16:13.730Z,4.10
2022-11-22T08:18:42.120Z,4.20
2022-11-22T08:21:14.278Z,4.30
2022-11-22T08:23:42.510Z,4.30
2022-11-22T08:26:12.895Z,4.40
2022-11-22T08:28:41.382Z,4.40
2022-11-22T08:31:12.311Z,4.60
2022-11-22T08:33:39.852Z,4.90
2022-11-22T08:36:07.162Z,4.80
2022-11-22T08:38:34.326Z,4.70
2022-11-22T08:41:01.118Z,4.50
2022-11-22T08:43:28.944Z,4.30
2022-11-22T08:45:58.540Z,4.20
2022-11-22T08:48:26.831Z,4.20
2022-11-22T08:50:57.237Z,4.20
2022-11-22T08:53:24.977Z,4.50
2022-11-22T08:55:52.222Z,5.00
2022-11-22T08:58:19.453Z,5.40
2022-11-22T09:00:46.615Z,5.70
2022-11-22T09:03:13.538Z,5.80
2022-11-22T09:08:28.953Z,5.50
2022-11-22T09:11:17.171Z,5.20
2022-11-22T09:13:44.354Z,5.10
2022-11-22T09:16:20.080Z,5.10
2022-11-22T09:18:48.318Z,5.20
2022-11-22T09:21:19.569Z,5.30
2022-11-22T09:23:50.407Z,5.20
2022-11-22T09:26:21.881Z,4.90
2022-11-22T09:28:48.898Z,5.00
2022-11-22T09:31:22.485Z,5.00
2022-11-22T09:33:50.420Z,5.10
2022-11-22T09:36:23.842Z,5.30
2022-11-22T09:38:51.899Z,5.30
2022-11-22T09:41:35.099Z,5.40
2022-11-22T09:44:36.078Z,5.40
2022-11-22T09:47:56.647Z,5.60
2022-11-22T09:50:51.243Z,5.70
2022-11-22T09:53:35.267Z,5.40
2022-11-22T09:56:11.741Z,5.60
2022-11-22T09:59:09.223Z,5.40
2022-11-22T10:02:16.834Z,5.40
2022-11-22T10:04:57.705Z,5.40
2022-11-22T10:07:49.983Z,5.30
2022-11-22T10:10:29.769Z,5.30
2022-11-22T10:13:09.611Z,5.30
2022-11-22T10:15:57.413Z,5.30
2022-11-22T10:18:45.789Z,5.20
2022-11-22T10:21:15.040Z,5.20
2022-11-22T10:23:43.970Z,5.20
2022-11-22T10:26:25.553Z,5.30
2022-11-22T10:29:19.830Z,5.30
2022-11-22T10:32:32.232Z,5.20
2022-11-22T10:35:45.378Z,5.30
2022-11-22T10:38:38.922Z,5.50
2022-11-22T10:41:37.083Z,5.50
2022-11-22T10:44:43.741Z,5.50
2022-11-22T10:47:47.943Z,5.50
2022-11-22T10:50:37.850Z,5.60
2022-11-22T10:53:20.869Z,5.80
2022-11-22T10:56:09.358Z,6.00
2022-11-22T10:59:10.148Z,6.10
2022-11-22T11:01:59.545Z,6.10
2022-11-22T11:04:35.729Z,6.20
2022-11-22T11:07:13.372Z,6.30
2022-11-22T11:12:49.213Z,6.30
2022-11-22T11:15:44.366Z,6.40
2022-11-22T11:18:24.819Z,6.50
2022-11-22T11:20:53.674Z,6.50
2022-11-22T11:23:20.815Z,6.50
2022-11-22T11:25:49.501Z,6.60
2022-11-22T11:28:29.997Z,6.60
2022-11-22T11:31:07.300Z,6.70
2022-11-22T11:33:38.286Z,6.60
2022-11-22T11:36:13.926Z,6.50
2022-11-22T11:38:43.716Z,6.50
2022-11-22T11:41:29.926Z,6.60
2022-11-22T11:44:06.314Z,6.60
2022-11-22T11:46:42.255Z,6.70
2022-11-22T11:49:18.507Z,6.60
2022-11-22T11:51:55.903Z,6.60
2022-11-22T11:54:45.458Z,6.50
2022-11-22T11:57:20.027Z,6.40
2022-11-22T11:59:50.178Z,6.30
2022-11-22T12:02:38.753Z,6.30
2022-11-22T12:05:26.241Z,6.30
2022-11-22T12:07:53.077Z,6.30
2022-11-22T12:10:36.044Z,6.30
2022-11-22T12:13:24.516Z,6.30
2022-11-22T12:16:26.066Z,6.30
2022-11-22T12:19:31.468Z,6.30
2022-11-22T12:22:48.361Z,6.40
2022-11-22T12:25:40.212Z,6.50
2022-11-22T12:28:21.069Z,6.50
2022-11-22T12:31:09.356Z,6.50
2022-11-22T12:33:50.788Z,6.50
2022-11-22T12:36:50.712Z,6.40
2022-11-22T12:39:26.473Z,6.40
2022-11-22T12:42:11.872Z,6.40
2022-11-22T12:44:46.439Z,6.30
2022-11-22T12:47:20.444Z,6.20
2022-11-22T12:49:56.717Z,6.20
2022-11-22T12:52:43.609Z,6.10
2022-11-22T12:55:36.833Z,6.00
2022-11-22T12:58:12.047Z,5.80
2022-11-22T13:01:05.753Z,5.70
2022-11-22T13:03:48.676Z,5.60
2022-11-22T13:06:21.902Z,5.60
2022-11-22T13:09:04.240Z,5.60
2022-11-22T13:12:00.437Z,5.50
2022-11-22T13:14:44.335Z,5.50
2022-11-22T13:17:15.879Z,5.50
2022-11-22T13:19:54.162Z,5.50
2022-11-22T13:22:35.876Z,5.50
2022-11-22T13:25:33.320Z,5.50
2022-11-22T13:28:05.972Z,5.60
2022-11-22T13:30:39.107Z,5.60
2022-11-22T13:33:22.615Z,5.60
2022-11-22T13:35:49.501Z,5.60
2022-11-22T13:38:18.175Z,5.60
2022-11-22T13:40:51.341Z,5.70
2022-11-22T13:43:22.243Z,5.70
2022-11-22T13:45:54.414Z,5.70
2022-11-22T13:48:39.672Z,5.70
2022-11-22T13:51:12.649Z,5.80
2022-11-22T13:53:47.959Z,5.90
2022-11-22T13:56:20.431Z,5.90
2022-11-22T13:59:17.032Z,5.90
2022-11-22T14:01:43.799Z,5.90
2022-11-22T14:04:16.517Z,6.00
2022-11-22T14:07:02.012Z,5.90
2022-11-22T14:09:40.531Z,6.10
2022-11-22T14:12:10.324Z,6.20
2022-11-22T14:15:13.975Z,6.30
2022-11-22T14:18:11.405Z,6.40
2022-11-22T14:21:04.618Z,6.40
2022-11-22T14:24:12.967Z,6.40
2022-11-22T14:27:02.447Z,6.30
2022-11-22T14:29:48.188Z,6.30
2022-11-22T14:32:24.861Z,6.20
2022-11-22T14:35:03.801Z,6.20
2022-11-22T14:37:33.936Z,6.10
2022-11-22T14:40:06.602Z,6.00
2022-11-22T14:42:40.511Z,5.90
2022-11-22T14:45:43.263Z,5.90
2022-11-22T14:48:22.834Z,5.80
2022-11-22T14:51:20.911Z,5.70
2022-11-22T14:54:00.662Z,5.70
2022-11-22T14:56:34.516Z,5.80
2022-11-22T14:59:01.200Z,5.70
2022-11-22T15:01:54.684Z,5.80
2022-11-22T15:09:09.902Z,5.80
2022-11-22T15:09:17.455Z,5.80
2022-11-22T15:11:50.512Z,5.80
2022-11-22T15:14:48.759Z,5.80
2022-11-22T15:58:13.576Z,6.10
2022-11-22T16:00:44.138Z,5.90
2022-11-22T16:03:26.220Z,5.90
2022-11-22T16:06:08.215Z,5.90
2022-11-22T16:08:38.583Z,5.90
2022-11-22T16:11:05.820Z,5.80
2022-11-22T16:13:36.569Z,5.80
2022-11-22T16:16:12.567Z,5.70
2022-11-22T16:18:42.085Z,5.60
2022-11-22T16:21:11.837Z,5.60
2022-11-22T16:23:45.243Z,5.50
2022-11-22T16:26:30.270Z,5.50
2022-11-22T16:29:22.769Z,5.50
2022-11-22T16:31:49.769Z,5.50
2022-11-22T16:34:17.322Z,5.50
2022-11-22T16:36:44.056Z,5.40
2022-11-22T16:43:20.903Z,5.40
2022-11-22T16:45:49.061Z,5.40
2022-11-22T16:48:31.933Z,5.40
2022-11-22T16:51:11.022Z,5.30
2022-11-22T16:53:49.553Z,5.30
2022-11-22T16:56:28.991Z,5.30
2022-11-22T16:58:57.784Z,5.30
2022-11-22T17:01:30.926Z,5.30
2022-11-22T17:03:59.178Z,5.30
2022-11-22T17:06:29.075Z,5.30
2022-11-22T17:08:58.489Z,5.30
2022-11-22T17:11:29.446Z,5.40
2022-11-22T17:13:56.976Z,5.40
2022-11-22T17:16:23.728Z,5.40
2022-11-22T17:18:50.615Z,5.40
2022-11-22T17:21:37.372Z,5.40
2022-11-22T17:24:22.842Z,5.40
2022-11-22T17:26:49.769Z,5.40
2022-11-22T17:29:35.291Z,5.40
2022-11-22T17:32:03.551Z,5.40
2022-11-22T17:34:30.479Z,5.30
2022-11-22T17:36:57.504Z,5.30
2022-11-22T17:39:24.278Z,5.30
2022-11-22T17:41:51.071Z,5.30
2022-11-22T17:44:18.250Z,5.30
2022-11-22T17:46:46.222Z,5.30
2022-11-22T17:49:16.281Z,5.30
2022-11-22T17:51:43.851Z,5.30
2022-11-22T17:54:10.744Z,5.30
2022-11-22T17:56:38.042Z,5.30
2022-11-22T17:59:05.180Z,5.30
2022-11-22T18:01:32.216Z,5.30
2022-11-22T18:03:59.140Z,5.40
2022-11-22T18:06:26.335Z,5.40
2022-11-22T18:08:53.301Z,5.40
2022-11-22T18:11:20.161Z,5.40
2022-11-22T18:13:47.020Z,5.60
2022-11-22T18:16:17.423Z,5.50
2022-11-22T18:19:01.098Z,5.50
2022-11-22T18:21:30.612Z,5.50
2022-11-22T18:24:01.424Z,5.40
2022-11-22T18:26:44.420Z,5.40
2022-11-22T18:32:01.341Z,5.40
2022-11-22T18:34:31.211Z,5.40
2022-11-22T18:37:02.483Z,5.40
2022-11-22T18:39:38.038Z,5.40
2022-11-22T18:42:15.744Z,5.40
2022-11-22T18:44:42.779Z,5.50
2022-11-22T18:47:09.894Z,5.40
2022-11-22T18:49:36.922Z,5.40
2022-11-22T18:52:04.111Z,5.40
2022-11-22T18:54:31.404Z,5.40
2022-11-22T18:56:58.455Z,5.40
2022-11-22T18:59:25.263Z,5.40
2022-11-22T19:01:52.089Z,5.40
2022-11-22T19:04:19.009Z,5.40
2022-11-22T19:06:46.040Z,5.40
2022-11-22T19:09:13.233Z,5.40
2022-11-22T19:11:40.153Z,5.40
2022-11-22T19:14:06.958Z,5.40
2022-11-22T19:16:33.814Z,5.40
2022-11-22T19:19:00.623Z,5.40
2022-11-22T19:21:30.217Z,5.50
2022-11-22T19:23:57.307Z,5.50
2022-11-22T19:26:27.045Z,5.50
2022-11-22T19:28:56.135Z,5.50
2022-11-22T19:31:29.201Z,5.50
2022-11-22T19:33:57.079Z,5.50
2022-11-22T19:36:32.790Z,5.50
2022-11-22T19:39:02.795Z,5.50
2022-11-22T19:41:30.763Z,5.60
2022-11-22T19:43:57.967Z,5.60
2022-11-22T19:46:25.620Z,5.60
2022-11-22T19:48:55.151Z,5.60
2022-11-22T19:51:23.116Z,5.60
2022-11-22T19:53:54.439Z,5.60
2022-11-22T19:56:21.247Z,5.60
2022-11-22T19:58:54.083Z,5.60
2022-11-22T20:01:23.797Z,5.60
2022-11-22T20:04:00.488Z,5.70
2022-11-22T20:06:28.859Z,5.70
2022-11-22T20:09:12.867Z,5.60
2022-11-22T20:11:42.005Z,5.70
2022-11-22T20:14:10.075Z,5.70
2022-11-22T20:16:41.195Z,5.70
2022-11-22T20:19:09.636Z,5.70
2022-11-22T20:21:37.660Z,5.80
2022-11-22T20:24:05.955Z,5.80
2022-11-22T20:26:33.959Z,5.80
2022-11-22T20:29:05.118Z,5.80
2022-11-22T20:31:34.630Z,5.80
2022-11-22T20:34:02.781Z,5.80
2022-11-22T20:36:33.137Z,5.70
2022-11-22T20:39:02.950Z,5.70
2022-11-22T20:41:34.395Z,5.70
2022-11-22T20:44:01.177Z,5.80
2022-11-22T20:46:29.752Z,5.80
2022-11-22T20:48:58.090Z,5.70
2022-11-22T20:51:27.883Z,5.70
2022-11-22T20:53:56.066Z,5.70
2022-11-22T20:56:23.564Z,5.70
2022-11-22T20:58:50.370Z,5.70
2022-11-22T21:01:21.580Z,5.70
2022-11-22T21:03:48.986Z,5.70
2022-11-22T21:06:19.233Z,5.70
2022-11-22T21:08:46.428Z,5.70
2022-11-22T21:11:16.367Z,5.70
2022-11-22T21:13:44.547Z,5.70
2022-11-22T21:16:24.117Z,5.70
2022-11-22T21:18:53.938Z,5.70
2022-11-22T21:21:25.321Z,5.70
2022-11-22T21:23:54.961Z,5.70
2022-11-22T21:26:23.767Z,5.80
2022-11-22T21:28:52.544Z,5.80
2022-11-22T21:31:21.692Z,5.80
2022-11-22T21:33:49.431Z,5.80
2022-11-22T21:36:16.355Z,5.80
2022-11-22T21:38:43.261Z,5.80
2022-11-22T21:41:38.715Z,5.80
2022-11-22T21:44:03.474Z,5.80
2022-11-22T21:46:30.248Z,5.80
2022-11-22T21:48:57.054Z,5.90
2022-11-22T21:51:26.032Z,5.80
2022-11-22T21:54:00.393Z,5.90
2022-11-22T21:56:29.727Z,5.90
2022-11-22T21:58:57.613Z,5.90
2022-11-22T22:01:25.584Z,5.90
2022-11-22T22:03:53.603Z,5.90
2022-11-22T22:06:20.715Z,5.90
2022-11-22T22:08:47.573Z,5.80
2022-11-22T22:11:14.883Z,5.90
2022-11-22T22:13:41.818Z,5.90
2022-11-22T22:16:15.380Z,5.90
2022-11-22T22:18:43.338Z,5.90
2022-11-22T22:21:12.823Z,5.90
2022-11-22T22:23:41.732Z,5.90
2022-11-22T22:26:12.588Z,5.90
2022-11-22T22:28:43.141Z,5.90
2022-11-22T22:31:21.706Z,5.90
2022-11-22T22:33:52.802Z,5.90
2022-11-22T22:36:20.753Z,5.90
2022-11-22T22:38:48.592Z,5.90
2022-11-22T22:41:15.733Z,5.90
2022-11-22T22:43:47.390Z,5.90
2022-11-22T22:46:24.727Z,5.90
2022-11-22T22:48:53.334Z,6.00
2022-11-22T22:51:32.247Z,6.00
2022-11-22T22:54:00.894Z,6.00
2022-11-22T22:56:30.189Z,6.00
2022-11-22T22:59:00.490Z,6.00
2022-11-22T23:01:30.510Z,6.00
2022-11-22T23:04:00.131Z,6.00
2022-11-22T23:06:30.598Z,6.00
2022-11-22T23:08:58.803Z,6.00
2022-11-22T23:11:48.258Z,6.00
2022-11-22T23:14:22.310Z,6.00
2022-11-22T23:16:53.224Z,6.00
2022-11-22T23:19:23.645Z,6.00
2022-11-22T23:21:50.639Z,6.00
2022-11-22T23:24:17.489Z,6.00
2022-11-22T23:26:44.252Z,6.00
2022-11-22T23:29:11.091Z,6.00
2022-11-22T23:31:37.951Z,6.00
2022-11-22T23:34:04.782Z,6.10
2022-11-22T23:36:34.823Z,6.10
2022-11-22T23:39:04.484Z,6.10
2022-11-22T23:41:31.241Z,6.10
2022-11-22T23:43:58.027Z,6.20
2022-11-22T23:46:27.937Z,6.20
2022-11-22T23:49:00.472Z,6.10
2022-11-22T23:51:29.811Z,6.10
2022-11-22T23:54:01.509Z,6.10
2022-11-22T23:56:31.391Z,6.20
2022-11-22T23:58:59.589Z,6.20
